createdAt,value
2023-01-12T00:03:51.123Z,58.27
2023-01-12T00:08:53.254Z,58.16
2023-01-12T00:13:55.868Z,57.94
2023-01-12T00:18:57.911Z,58.22
2023-01-12T00:23:59.667Z,57.83
2023-01-12T00:29:01.821Z,57.61
2023-01-12T00:34:03.746Z,57.65
2023-01-12T00:39:05.834Z,57.48
2023-01-12T00:44:26.265Z,57.61
2023-01-12T00:49:28.422Z,57.71
2023-01-12T00:54:30.243Z,57.55
2023-01-12T00:59:32.412Z,57.58
2023-01-12T01:04:37.156Z,57.28
2023-01-12T01:09:39.123Z,57.20
2023-01-12T01:14:40.985Z,57.13
2023-01-12T01:19:43.883Z,57.07
2023-01-12T01:24:45.872Z,57.21
2023-01-12T01:29:47.839Z,56.91
2023-01-12T01:34:49.636Z,57.03
2023-01-12T01:39:52.587Z,56.73
2023-01-12T01:44:57.517Z,57.06
2023-01-12T01:50:02.507Z,56.92
2023-01-12T01:55:14.104Z,57.07
2023-01-12T02:00:16.494Z,57.09
2023-01-12T02:05:21.779Z,57.18
2023-01-12T02:10:23.798Z,56.96
2023-01-12T02:15:47.204Z,57.09
2023-01-12T02:21:17.426Z,57.28
2023-01-12T02:27:07.663Z,57.35
2023-01-12T02:32:48.881Z,57.28
2023-01-12T02:38:15.749Z,57.38
2023-01-12T02:43:24.663Z,57.39
2023-01-12T02:48:38.600Z,57.54
2023-01-12T02:53:51.354Z,57.49
2023-01-12T02:58:57.657Z,57.64
2023-01-12T03:04:03.831Z,57.60
2023-01-12T03:09:06.474Z,57.76
2023-01-12T03:14:11.125Z,57.73
2023-01-12T03:19:20.397Z,58.04
2023-01-12T03:24:30.229Z,57.59
2023-01-12T03:29:46.614Z,57.92
2023-01-12T03:34:48.873Z,57.76
2023-01-12T03:40:19.001Z,57.69
2023-01-12T03:45:39.835Z,57.88
2023-01-12T03:50:50.311Z,57.58
2023-01-12T03:55:57.675Z,57.63
2023-01-12T04:01:00.267Z,57.64
2023-01-12T04:06:02.278Z,57.71
2023-01-12T04:11:24.127Z,57.66
2023-01-12T04:16:25.955Z,57.35
2023-01-12T04:21:46.779Z,57.25
2023-01-12T04:26:48.458Z,57.59
2023-01-12T04:31:50.207Z,57.38
2023-01-12T04:36:52.116Z,57.73
2023-01-12T04:41:54.268Z,57.43
2023-01-12T04:46:56.104Z,57.25
2023-01-12T04:52:00.085Z,57.34
2023-01-12T04:57:02.075Z,57.70
2023-01-12T05:02:03.809Z,57.47
2023-01-12T05:07:05.812Z,57.49
2023-01-12T05:12:07.812Z,57.46
2023-01-12T05:17:09.467Z,57.47
2023-01-12T05:22:11.463Z,57.57
2023-01-12T05:27:13.323Z,57.91
2023-01-12T05:32:15.149Z,57.40
2023-01-12T05:37:16.975Z,57.77
2023-01-12T05:42:37.347Z,57.50
2023-01-12T05:47:40.110Z,57.83
2023-01-12T05:52:41.968Z,57.81
2023-01-12T05:57:43.831Z,57.72
2023-01-12T06:02:45.791Z,57.96
2023-01-12T06:07:47.731Z,57.67
2023-01-12T06:13:12.307Z,57.99
2023-01-12T06:18:14.051Z,57.73
2023-01-12T06:23:17.075Z,58.01
2023-01-12T06:28:18.831Z,57.89
2023-01-12T06:33:21.670Z,57.99
2023-01-12T06:38:25.412Z,57.54
2023-01-12T06:43:27.245Z,57.81
2023-01-12T06:48:38.775Z,58.01
2023-01-12T06:53:41.216Z,58.17
2023-01-12T06:58:43.593Z,58.05
2023-01-12T07:03:45.708Z,57.85
2023-01-12T07:08:47.565Z,57.61
2023-01-12T07:13:49.291Z,57.50
2023-01-12T07:18:51.012Z,57.68
2023-01-12T07:23:52.857Z,57.96
2023-01-12T07:28:55.912Z,57.41
2023-01-12T07:33:57.798Z,57.80
2023-01-12T07:39:00.917Z,57.97
2023-01-12T07:44:02.714Z,57.51
2023-01-12T07:49:04.361Z,57.28
2023-01-12T07:54:06.639Z,57.46
2023-01-12T07:59:08.692Z,57.56
2023-01-12T08:04:10.627Z,57.20
2023-01-12T08:09:12.570Z,57.50
2023-01-12T08:14:26.430Z,57.01
2023-01-12T08:19:43.099Z,57.19
2023-01-12T08:24:51.385Z,57.23
2023-01-12T08:30:00.580Z,56.97
2023-01-12T08:35:04.585Z,57.09
2023-01-12T08:40:07.797Z,56.79
2023-01-12T08:45:10.191Z,57.21
2023-01-12T08:50:12.264Z,57.30
2023-01-12T08:55:13.980Z,57.21
2023-01-12T09:00:16.155Z,57.13
2023-01-12T09:05:18.273Z,57.01
2023-01-12T09:10:20.040Z,56.88
2023-01-12T09:15:22.330Z,56.89
2023-01-12T09:20:24.181Z,56.98
2023-01-12T09:25:26.116Z,57.02
2023-01-12T09:30:27.990Z,56.83
2023-01-12T09:35:30.666Z,56.65
2023-01-12T09:40:32.477Z,56.66
2023-01-12T09:45:52.920Z,56.46
2023-01-12T09:51:12.227Z,56.36
2023-01-12T09:56:34.949Z,56.30
2023-01-12T10:01:37.378Z,56.27
2023-01-12T10:06:39.803Z,56.12
2023-01-12T10:11:52.111Z,56.15
2023-01-12T10:17:15.508Z,56.03
2023-01-12T10:22:37.973Z,56.23
2023-01-12T10:27:43.628Z,56.09
2023-01-12T10:32:45.793Z,55.87
2023-01-12T10:37:51.758Z,55.95
2023-01-12T10:43:22.725Z,55.90
2023-01-12T10:48:26.762Z,55.79
2023-01-12T10:53:40.937Z,55.78
2023-01-12T10:58:47.719Z,56.02
2023-01-12T11:03:49.732Z,55.96
2023-01-12T11:08:52.130Z,55.92
2023-01-12T11:14:03.108Z,56.10
2023-01-12T11:19:18.943Z,55.78
2023-01-12T11:24:27.079Z,55.62
2023-01-12T11:29:38.235Z,55.60
2023-01-12T11:34:54.634Z,55.61
2023-01-12T11:40:23.036Z,55.46
2023-01-12T11:45:41.204Z,55.24
2023-01-12T11:50:44.701Z,55.33
2023-01-12T11:55:57.666Z,54.91
2023-01-12T12:01:28.479Z,54.77
2023-01-12T12:06:30.293Z,54.78
2023-01-12T12:11:51.253Z,54.73
2023-01-12T12:17:19.658Z,54.56
2023-01-12T12:23:00.201Z,54.64
2023-01-12T12:28:32.799Z,54.71
2023-01-12T12:33:56.797Z,55.08
2023-01-12T12:39:32.877Z,54.93
2023-01-12T12:45:18.399Z,54.89
2023-01-12T12:50:29.334Z,55.09
2023-01-12T12:55:31.755Z,54.76
2023-01-12T13:00:40.535Z,54.93
2023-01-12T13:05:43.758Z,54.81
2023-01-12T13:10:51.490Z,54.79
2023-01-12T13:16:19.498Z,54.52
2023-01-12T13:21:27.561Z,54.49
2023-01-12T13:26:35.694Z,54.33
2023-01-12T13:31:38.997Z,54.27
2023-01-12T13:36:40.901Z,54.30
2023-01-12T13:42:02.120Z,53.96
2023-01-12T13:47:10.343Z,53.98
2023-01-12T13:52:29.261Z,53.82
2023-01-12T13:57:32.047Z,53.91
2023-01-12T14:02:34.391Z,53.46
2023-01-12T14:07:45.590Z,53.68
2023-01-12T14:12:56.897Z,53.31
2023-01-12T14:18:19.413Z,53.56
2023-01-12T14:23:27.231Z,53.27
2023-01-12T14:28:29.876Z,53.21
2023-01-12T14:33:38.229Z,52.73
2023-01-12T14:38:42.315Z,53.09
2023-01-12T14:44:04.314Z,53.11
2023-01-12T14:49:28.930Z,53.18
2023-01-12T14:54:33.654Z,52.94
2023-01-12T14:59:43.698Z,53.06
2023-01-12T15:04:54.140Z,53.14
2023-01-12T15:09:58.855Z,53.00
2023-01-12T15:15:24.070Z,52.52
2023-01-12T15:20:49.266Z,52.79
2023-01-12T15:25:51.203Z,52.78
2023-01-12T15:30:55.563Z,52.96
2023-01-12T15:35:58.589Z,52.82
2023-01-12T15:41:00.375Z,52.85
2023-01-12T15:46:02.215Z,52.79
2023-01-12T15:51:05.446Z,52.81
2023-01-12T15:56:11.672Z,52.91
2023-01-12T16:01:16.886Z,52.88
2023-01-12T16:06:18.938Z,52.91
2023-01-12T16:11:24.350Z,53.05
2023-01-12T16:16:26.743Z,53.02
2023-01-12T16:21:28.963Z,53.06
2023-01-12T16:26:30.744Z,52.96
2023-01-12T16:31:32.697Z,53.06
2023-01-12T16:36:35.198Z,52.88
2023-01-12T16:41:37.092Z,52.75
2023-01-12T16:46:38.833Z,52.90
2023-01-12T16:51:41.620Z,52.97
2023-01-12T16:56:43.541Z,52.81
2023-01-12T17:01:45.486Z,52.82
2023-01-12T17:06:48.336Z,52.76
2023-01-12T17:11:50.600Z,53.19
2023-01-12T17:16:59.215Z,52.91
2023-01-12T17:22:03.807Z,53.02
2023-01-12T17:27:06.881Z,52.88
2023-01-12T17:32:08.905Z,52.80
2023-01-12T17:37:11.442Z,53.03
2023-01-12T17:42:34.552Z,52.76
2023-01-12T17:47:37.266Z,52.64
2023-01-12T17:52:41.933Z,52.69
2023-01-12T17:57:45.434Z,52.58
2023-01-12T18:02:50.903Z,52.64
2023-01-12T18:07:52.861Z,52.99
2023-01-12T18:12:54.625Z,52.78
2023-01-12T18:23:19.780Z,53.03
2023-01-12T18:28:21.647Z,52.91
2023-01-12T18:33:28.583Z,52.76
2023-01-12T18:38:31.861Z,52.91
2023-01-12T18:43:34.292Z,52.84
2023-01-12T18:48:47.657Z,53.03
2023-01-12T18:53:49.500Z,52.82
2023-01-12T18:58:52.317Z,53.13
2023-01-12T19:03:54.394Z,52.96
2023-01-12T19:09:15.155Z,53.07
2023-01-12T19:14:35.987Z,53.10
2023-01-12T19:19:38.226Z,53.16
2023-01-12T19:24:58.882Z,53.17
2023-01-12T19:30:01.130Z,53.05
2023-01-12T19:35:10.889Z,53.10
2023-01-12T19:40:24.500Z,53.10
2023-01-12T19:45:27.683Z,52.86
2023-01-12T19:50:30.207Z,52.97
2023-01-12T19:55:33.366Z,52.91
2023-01-12T20:00:46.723Z,52.74
2023-01-12T20:05:51.308Z,52.69
2023-01-12T20:10:59.101Z,52.78
2023-01-12T20:16:10.598Z,52.98
2023-01-12T20:21:12.953Z,52.82
2023-01-12T20:26:15.786Z,52.68
2023-01-12T20:31:20.981Z,52.61
2023-01-12T20:36:23.295Z,52.54
2023-01-12T20:41:26.640Z,52.80
2023-01-12T20:46:28.890Z,52.90
2023-01-12T20:51:31.409Z,52.79
2023-01-12T20:56:33.559Z,52.46
2023-01-12T21:01:35.620Z,52.64
2023-01-12T21:06:42.145Z,52.75
2023-01-12T21:11:47.104Z,52.72
2023-01-12T21:16:49.060Z,52.64
2023-01-12T21:21:51.730Z,52.57
2023-01-12T21:26:57.964Z,52.57
2023-01-12T21:31:59.833Z,52.61
2023-01-12T21:37:01.615Z,52.49
2023-01-12T21:42:22.268Z,52.62
2023-01-12T21:47:23.990Z,52.35
2023-01-12T21:52:31.383Z,52.50
2023-01-12T21:57:33.060Z,52.30
2023-01-12T22:02:35.205Z,52.67
2023-01-12T22:07:37.011Z,52.85
2023-01-12T22:12:38.808Z,52.62
2023-01-12T22:17:40.535Z,52.65
2023-01-12T22:22:42.868Z,52.53
2023-01-12T22:27:45.054Z,52.59
2023-01-12T22:32:47.360Z,52.71
2023-01-12T22:37:49.068Z,52.62
2023-01-12T22:43:11.548Z,52.51
2023-01-12T22:48:13.318Z,52.48
2023-01-12T22:53:15.126Z,52.86
2023-01-12T22:58:19.605Z,52.90
2023-01-12T23:03:21.662Z,52.79
2023-01-12T23:08:24.984Z,53.08
2023-01-12T23:13:26.957Z,52.89
2023-01-12T23:18:31.154Z,52.88
2023-01-12T23:23:33.271Z,52.95
2023-01-12T23:28:41.328Z,53.11
2023-01-12T23:33:44.116Z,52.89
2023-01-12T23:38:46.807Z,52.84
2023-01-12T23:43:50.754Z,52.87
2023-01-12T23:48:55.313Z,52.68
2023-01-12T23:53:59.784Z,52.83
2023-01-12T23:59:01.879Z,52.82
